Home > Products > Valid Products > MTR

000
SAUS45 KFGZ 022258
MTRFLG
METAR KFLG 022257Z AUTO VRB04KT 10SM CLR 26/00 A3020 RMK AO2 SLP127
T02560000 TSNO





000
SAUS45 KFGZ 022158
MTRFLG
METAR KFLG 022157Z AUTO 23010KT 10SM CLR 26/00 A3023 RMK AO2 SLP136
T02610000 TSNO





000
SAUS45 KFGZ 022058
MTRFLG
METAR KFLG 022057Z 19010G18KT 10SM CLR 26/01 A3025 RMK AO2 SLP144
T02560011 58010





000
SAUS45 KFGZ 021958
MTRFLG
METAR KFLG 021957Z 17010KT 10SM CLR 26/01 A3026 RMK AO2 SLP148
T02560006





000
SAUS45 KFGZ 021858
MTRFLG
METAR KFLG 021857Z 17010KT 10SM CLR 24/01 A3028 RMK AO2 SLP153
T02440011





000
SAUS45 KFGZ 021758
MTRFLG
METAR KFLG 021757Z 19010KT 10SM CLR 24/03 A3029 RMK AO2 SLP154
T02440033 10244 20078 50002





000
SAUS45 KFGZ 021658
MTRFLG
METAR KFLG 021657Z 22008KT 10SM CLR 24/03 A3029 RMK AO2 SLP155
T02390028





000
SAUS45 KFGZ 021559
MTRFLG
METAR KFLG 021557Z 30005KT 10SM CLR 22/04 A3029 RMK AO2 SLP154
T02220039





000
SAUS45 KFGZ 021459
MTRFLG
METAR KFLG 021457Z 00000KT 10SM CLR 19/08 A3028 RMK AO2 SLP155
T01890078 50004





000
SAUS45 KFGZ 021358
MTRFLG
METAR KFLG 021357Z 00000KT 10SM CLR 12/06 A3028 RMK AO2 SLP160
T01170061





000
SAUS45 KFGZ 021258
MTRFLG
METAR KFLG 021257Z 00000KT 10SM CLR 08/04 A3027 RMK AO2 SLP159
T00780039





000
SAUS45 KFGZ 021158
MTRFLG
METAR KFLG 021157Z AUTO 00000KT 10SM CLR 08/04 A3026 RMK AO2 SLP151
T00830044 10122 20083 53004 TSNO





000
SAUS45 KFGZ 021058
MTRFLG
METAR KFLG 021057Z AUTO 00000KT 10SM CLR 09/04 A3026 RMK AO2 SLP147
T00940044 TSNO





000
SAUS45 KFGZ 020958
MTRFLG
METAR KFLG 020957Z AUTO 00000KT 10SM CLR 09/05 A3025 RMK AO2 SLP145
T00940050 TSNO





000
SAUS45 KFGZ 020858
MTRFLG
METAR KFLG 020857Z AUTO 00000KT 10SM CLR 09/05 A3025 RMK AO2 SLP143
T00940050 58003 TSNO





000
SAUS45 KFGZ 020758
MTRFLG
METAR KFLG 020757Z AUTO 00000KT 10SM CLR 10/06 A3025 RMK AO2 SLP145
T01000056 TSNO





000
SAUS45 KFGZ 020658
MTRFLG
METAR KFLG 020657Z AUTO 00000KT 10SM CLR 11/06 A3026 RMK AO2 SLP147
T01110056 402670083 TSNO





000
SAUS45 KFGZ 020558
MTRFLG
METAR KFLG 020557Z AUTO 00000KT 10SM CLR 12/06 A3026 RMK AO2 SLP148
T01170061 10261 20111 50005 TSNO





000
SAUS45 KFGZ 020458
MTRFLG
METAR KFLG 020457Z AUTO 00000KT 10SM CLR 13/06 A3026 RMK AO2 SLP148
T01280061 TSNO





000
SAUS45 KFGZ 020358
MTRFLG
METAR KFLG 020357Z AUTO 00000KT 10SM CLR 14/06 A3026 RMK AO2 SLP147
T01440061 TSNO





000
SAUS45 KFGZ 020358
MTRFLG
METAR KFLG 020357Z AUTO 00000KT 10SM CLR 14/06 A3026 RMK AO2 SLP147
T01440061 TSNO





000
SAUS45 KFGZ 020258
MTRFLG
METAR KFLG 020257Z 00000KT 10SM CLR 17/06 A3024 RMK AO2 SLP142
T01670061 53007





000
SAUS45 KFGZ 020158
MTRFLG
METAR KFLG 020157Z 23003KT 10SM CLR 21/05 A3023 RMK AO2 SLP140
T02110050





000
SAUS45 KFGZ 020058
MTRFLG
METAR KFLG 020057Z 24008KT 10SM CLR 24/03 A3022 RMK AO2 SLP135
T02440028





000
SAUS45 KFGZ 012358
MTRFLG
METAR KFLG 012357Z 25008KT 10SM CLR 26/02 A3022 RMK AO2 SLP132
T02610017 10267 20233 55005





000
SAUS45 KFGZ 012258
MTRFLG
METAR KFLG 012257Z 22013KT 10SM CLR 26/04 A3021 RMK AO2 SLP131
T02610039





000
SAUS45 KFGZ 012158
MTRFLG
METAR KFLG 012157Z 23010G18KT 10SM CLR 26/04 A3022 RMK AO2 SLP132
T02610044





000
SAUS45 KFGZ 012058
MTRFLG
METAR KFLG 012057Z 22013G21KT 10SM CLR 26/05 A3023 RMK AO2 SLP136
T02560050 58009





000
SAUS45 KFGZ 011958
MTRFLG
METAR KFLG 011957Z 21011KT 10SM CLR 25/06 A3025 RMK AO2 SLP141
T02500056





000
SAUS45 KFGZ 011858
MTRFLG
METAR KFLG 011857Z 22011KT 10SM CLR 24/06 A3026 RMK AO2 SLP150
T02440056





000
SAUS45 KFGZ 011758
MTRFLG
METAR KFLG 011757Z 22009KT 180V260 10SM CLR 24/06 A3027 RMK AO2
SLP151 T02390061 10239 20083 50003





000
SAUS45 KFGZ 011658
MTRFLG
METAR KFLG 011657Z 23008KT 10SM CLR 23/06 A3027 RMK AO2 SLP152
T02280061





000
SAUS45 KFGZ 011558
MTRFLG
METAR KFLG 011557Z VRB04KT 10SM CLR 21/06 A3027 RMK AO2 SLP148
T02110061





000
SAUS45 KFGZ 011458
MTRFLG
METAR KFLG 011457Z 24003KT 10SM CLR 19/07 A3026 RMK AO2 SLP144
T01890072 51007





000
SAUS45 KFGZ 011358
MTRFLG
METAR KFLG 011357Z 00000KT 10SM CLR 12/07 A3026 RMK AO2 SLP151
T01170067





000
SAUS45 KFGZ 011258
MTRFLG
METAR KFLG 011257Z AUTO 00000KT 10SM CLR 09/05 A3025 RMK AO2 SLP147
T00940050 TSNO





000
SAUS45 KFGZ 011158
MTRFLG
METAR KFLG 011157Z AUTO 00000KT 10SM CLR 09/05 A3023 RMK AO2 SLP140
T00940050 10122 20089 55002 TSNO





000
SAUS45 KFGZ 011058
MTRFLG
METAR KFLG 011057Z AUTO 21003KT 10SM CLR 09/05 A3023 RMK AO2 SLP138
T00940050 TSNO





000
SAUS45 KFGZ 010958
MTRFLG
METAR KFLG 010957Z AUTO 00000KT 10SM CLR 10/05 A3023 RMK AO2 SLP138
T01000050 TSNO





000
SAUS45 KFGZ 010858
MTRFLG
METAR KFLG 010857Z AUTO 00000KT 10SM CLR 11/06 A3024 RMK AO2 SLP141
T01060056 58001 TSNO





000
SAUS45 KFGZ 010758
MTRFLG
METAR KFLG 010757Z AUTO 28005KT 10SM CLR 12/05 A3024 RMK AO2 SLP137
T01170050 TSNO





000
SAUS45 KFGZ 010658
MTRFLG
METAR KFLG 010657Z AUTO 00000KT 10SM CLR 10/06 A3025 RMK AO2 SLP145
T01000056 402610089 TSNO





000
SAUS45 KFGZ 010558
MTRFLG
METAR KFLG 010557Z AUTO 00000KT 10SM CLR 12/06 A3024 RMK AO2 SLP142
T01170056 10250 20111 51010 TSNO





000
SAUS45 KFGZ 010458
MTRFLG
METAR KFLG 010457Z AUTO 00000KT 10SM CLR 13/06 A3024 RMK AO2 SLP136
T01280056 TSNO





000
SAUS45 KFGZ 010358
MTRFLG
METAR KFLG 010357Z AUTO 00000KT 10SM CLR 15/06 A3022 RMK AO2 SLP131
T01500061 TSNO





000
SAUS45 KFGZ 010258
MTRFLG
METAR KFLG 010257Z 22004KT 10SM CLR 18/05 A3020 RMK AO2 SLP122
T01780050 53005





000
SAUS45 KFGZ 010158
MTRFLG
METAR KFLG 010157Z 25006KT 10SM CLR 21/04 A3019 RMK AO2 SLP124
T02110044





000
SAUS45 KFGZ 010158
MTRFLG
METAR KFLG 010157Z 25006KT 10SM CLR 21/04 A3019 RMK AO2 SLP124
T02110044





000
SAUS45 KFGZ 010058
MTRFLG
METAR KFLG 010057Z 26012G18KT 10SM CLR 23/03 A3019 RMK AO2 SLP126
T02330033





000
SAUS45 KFGZ 312358
MTRFLG
METAR KFLG 312357Z 24012G23KT 10SM CLR 24/02 A3018 RMK AO2 SLP121
T02440022 10261 20233 55008





000
SAUS45 KFGZ 312258
MTRFLG
METAR KFLG 312257Z 25016G25KT 10SM CLR 25/01 A3018 RMK AO2 PK WND
21026/2207 SLP118 T02500011





000
SAUS45 KFGZ 312158
MTRFLG
METAR KFLG 312157Z 23016G26KT 10SM CLR 26/03 A3019 RMK AO2 PK WND
22026/2154 SLP118 T02560033





000
SAUS45 KFGZ 312058
MTRFLG
METAR KFLG 312057Z 23016G28KT 10SM CLR 25/04 A3021 RMK AO2 PK WND
22028/2048 SLP126 T02500044 58006





000
SAUS45 KFGZ 311958
MTRFLG
METAR KFLG 311957Z 23017G24KT 10SM CLR 24/04 A3023 RMK AO2 PK WND
22030/1913 SLP133 T02440044





000
SAUS45 KFGZ 311858
MTRFLG
METAR KFLG 311857Z 23020G29KT 10SM CLR 24/02 A3023 RMK AO2 PK WND
22029/1856 SLP136 T02390017





000
SAUS45 KFGZ 311758
MTRFLG
METAR KFLG 311757Z 25019G29KT 10SM CLR 23/01 A3024 RMK AO2 PK WND
22030/1728 SLP131 T02330006 10239 20089 58000





000
SAUS45 KFGZ 311658
MTRFLG
METAR KFLG 311657Z 24022G28KT 10SM CLR 23/03 A3024 RMK AO2 PK WND
22030/1637 SLP130 T02330028





000
SAUS45 KFGZ 311558
MTRFLG
METAR KFLG 311557Z 24009G22KT 10SM CLR 21/03 A3024 RMK AO2 SLP133
T02110033





000
SAUS45 KFGZ 311458
MTRFLG
METAR KFLG 311457Z 24007KT 10SM CLR 20/04 A3024 RMK AO2 SLP132
T02000044 50006





000
SAUS45 KFGZ 311358
MTRFLG
METAR KFLG 311357Z 22005KT 10SM CLR 14/06 A3024 RMK AO2 SLP140
T01390061





000
SAUS45 KFGZ 311258
MTRFLG
METAR KFLG 311257Z 22003KT 10SM CLR 09/04 A3023 RMK AO2 SLP142
T00940039





000
SAUS45 KFGZ 311158
MTRFLG
METAR KFLG 311157Z AUTO 23003KT 10SM CLR 11/03 A3022 RMK AO2 SLP132
T01060033 10156 20106 53001 TSNO





000
SAUS45 KFGZ 311058
MTRFLG
METAR KFLG 311057Z AUTO 22003KT 10SM CLR 12/04 A3021 RMK AO2 SLP124
T01170039 TSNO





000
SAUS45 KFGZ 310958
MTRFLG
METAR KFLG 310957Z AUTO 26003KT 10SM CLR 12/04 A3021 RMK AO2 SLP124
T01220044 TSNO





000
SAUS45 KFGZ 310858
MTRFLG
METAR KFLG 310857Z AUTO 28004KT 10SM CLR 12/03 A3021 RMK AO2 SLP125
T01220033 56001 TSNO





000
SAUS45 KFGZ 310758
MTRFLG
METAR KFLG 310757Z AUTO 30004KT 10SM CLR 12/04 A3021 RMK AO2 SLP125
T01220039 TSNO





000
SAUS45 KFGZ 310658
MTRFLG
METAR KFLG 310657Z AUTO 00000KT 10SM CLR 12/04 A3021 RMK AO2 SLP125
T01220039 402610067 TSNO





000
SAUS45 KFGZ 310558
MTRFLG
METAR KFLG 310557Z AUTO 21004KT 10SM CLR 16/04 A3021 RMK AO2 SLP118
T01560039 10250 20156 50001 TSNO





000
SAUS45 KFGZ 310458
MTRFLG
METAR KFLG 310457Z AUTO 22005KT 10SM CLR 17/04 A3022 RMK AO2 SLP122
T01670044 TSNO





000
SAUS45 KFGZ 310359
MTRFLG
METAR KFLG 310357Z AUTO 22005KT 10SM CLR 17/05 A3022 RMK AO2 SLP124
T01720050 TSNO





000
SAUS45 KFGZ 310259
MTRFLG
METAR KFLG 310257Z 00000KT 10SM CLR 18/06 A3021 RMK AO2 SLP126
T01830056 53002





000
SAUS45 KFGZ 310158
MTRFLG
METAR KFLG 310157Z 22007KT 10SM CLR 21/04 A3019 RMK AO2 SLP131
T02110044





000
SAUS45 KFGZ 310058
MTRFLG
METAR KFLG 310057Z 21008G16KT 10SM CLR 24/05 A3019 RMK AO2 SLP133
T02390050





000
SAUS45 KFGZ 302358
MTRFLG
METAR KFLG 302357Z 24009G17KT 10SM CLR 25/03 A3020 RMK AO2 SLP134
T02500033 10261 20244 56014





    US Dept of Commerce
    National Oceanic and Atmospheric Administration
    National Weather Service
    1325 East West Highway
    Silver Spring, MD 20910
    Page Author: NWS Internet Services Team
Disclaimer
Information Quality
Credits
Glossary
Privacy Policy
Freedom of Information Act (FOIA)
About Us
Career Opportunities